Time;durP1;ratioP1;P1;durP2;ratioP2;P2;SDS_P1;SDS_P2;PMS_P1;PMS_P2;Temp;Humidity;BMP_temperature;BMP_pressure;BME280_temperature;BME280_humidity;BME280_pressure;Samples;Min_cycle;Max_cycle;Signal;HPM_P1;HPM_P2
2022/11/27 00:01:21;;;;;;;25.95;11.13;;;;;;;6.87;100.00;101343.28;5031976;28;20045;-73
2022/11/27 00:03:47;;;;;;;28.50;13.05;;;;;;;6.98;100.00;101349.50;5031699;28;20072;-72
2022/11/27 00:06:14;;;;;;;28.08;12.23;;;;;;;7.00;100.00;101338.91;5030568;28;20065;-72
2022/11/27 00:08:41;;;;;;;38.88;14.55;;;;;;;7.00;100.00;101326.56;5032095;28;20031;-73
2022/11/27 00:11:10;;;;;;;24.27;11.13;;;;;;;7.03;100.00;101325.69;5031856;28;20033;-73
2022/11/27 00:13:36;;;;;;;30.40;12.52;;;;;;;7.02;100.00;101316.88;5022603;28;20036;-73
2022/11/27 00:16:03;;;;;;;26.48;12.45;;;;;;;7.04;100.00;101314.22;5012247;28;20026;-74
2022/11/27 00:18:28;;;;;;;27.45;11.00;;;;;;;7.04;100.00;101312.47;5012973;28;20025;-74
2022/11/27 00:20:54;;;;;;;28.05;12.27;;;;;;;7.09;100.00;101310.72;5030280;28;20082;-74
2022/11/27 00:23:19;;;;;;;27.92;13.45;;;;;;;7.12;100.00;101310.72;5031824;28;20111;-74
2022/11/27 00:25:52;;;;;;;25.52;11.05;;;;;;;7.16;100.00;101316.91;5031631;28;20047;-74
2022/11/27 00:28:18;;;;;;;30.80;12.27;;;;;;;7.18;100.00;101315.16;5031560;28;20028;-73
2022/11/27 00:30:44;;;;;;;25.83;11.05;;;;;;;7.23;100.00;101301.03;5031788;28;20144;-74
2022/11/27 00:33:09;;;;;;;24.38;11.45;;;;;;;7.25;100.00;101306.34;5031596;28;20524;-74
2022/11/27 00:35:34;;;;;;;27.75;12.13;;;;;;;7.27;100.00;101297.53;5031608;28;20021;-74
2022/11/27 00:38:00;;;;;;;31.08;12.55;;;;;;;7.27;100.00;101300.16;5030812;28;20021;-73
2022/11/27 00:40:25;;;;;;;24.60;10.68;;;;;;;7.30;100.00;101292.22;5031437;28;20090;-74
2022/11/27 00:42:51;;;;;;;25.25;11.10;;;;;;;7.31;100.00;101290.47;5027986;28;20025;-74
2022/11/27 00:45:16;;;;;;;27.45;10.43;;;;;;;7.22;100.00;101283.41;5013287;28;20026;-74
2022/11/27 00:47:42;;;;;;;31.92;12.93;;;;;;;7.25;100.00;101301.91;5031061;28;20033;-74
2022/11/27 00:50:07;;;;;;;34.70;12.20;;;;;;;7.27;100.00;101294.88;5026807;28;20037;-73
2022/11/27 00:52:33;;;;;;;25.08;11.93;;;;;;;7.26;100.00;101293.13;5031202;28;20022;-72
2022/11/27 00:54:58;;;;;;;31.77;12.23;;;;;;;7.32;100.00;101286.94;5031279;28;20072;-74
2022/11/27 00:57:24;;;;;;;33.58;12.73;;;;;;;7.35;100.00;101293.13;5027954;28;20112;-73
2022/11/27 00:59:50;;;;;;;23.33;11.57;;;;;;;7.35;100.00;101287.81;5030547;28;20029;-73
2022/11/27 01:02:15;;;;;;;22.25;10.50;;;;;;;7.37;100.00;101290.47;5030706;28;20033;-73
2022/11/27 01:04:45;;;;;;;24.98;10.52;;;;;;;7.40;100.00;101282.53;5030422;28;20025;-74
2022/11/27 01:07:10;;;;;;;25.60;11.30;;;;;;;7.44;100.00;101281.66;5030441;28;20032;-73
2022/11/27 01:09:35;;;;;;;29.42;12.40;;;;;;;7.47;100.00;101274.59;5030544;28;20025;-74
2022/11/27 01:12:01;;;;;;;23.85;10.25;;;;;;;7.49;100.00;101275.50;5029015;28;20040;-74
2022/11/27 01:14:26;;;;;;;27.90;12.15;;;;;;;7.53;100.00;101266.66;5026248;28;20040;-74
2022/11/27 01:16:52;;;;;;;35.22;11.35;;;;;;;7.56;100.00;101274.59;5031076;28;20040;-74
2022/11/27 01:19:18;;;;;;;23.35;10.25;;;;;;;7.57;100.00;101272.81;5030777;28;20025;-74
2022/11/27 01:21:44;;;;;;;22.98;10.88;;;;;;;7.61;100.00;101264.88;5031092;28;20029;-74
2022/11/27 01:24:11;;;;;;;23.85;10.95;;;;;;;7.55;100.00;101264.00;5029601;28;20514;-74
2022/11/27 01:26:37;;;;;;;27.50;10.50;;;;;;;7.55;100.00;101264.00;5029541;28;20481;-74
2022/11/27 01:29:02;;;;;;;25.70;10.95;;;;;;;7.54;100.00;101262.25;5030850;28;20032;-74
2022/11/27 01:31:31;;;;;;;25.52;10.52;;;;;;;7.45;100.00;101247.25;5030967;28;20025;-74
2022/11/27 01:34:02;;;;;;;23.52;10.90;;;;;;;7.59;100.00;101260.47;5025908;28;20025;-74
2022/11/27 01:36:29;;;;;;;26.23;10.57;;;;;;;7.55;100.00;101249.00;5009632;28;20033;-74
2022/11/27 01:38:54;;;;;;;20.70;9.95;;;;;;;7.61;100.00;101258.72;5009716;28;20026;-74
2022/11/27 01:41:24;;;;;;;23.83;10.10;;;;;;;7.64;100.00;101256.91;5009834;28;20026;-74
2022/11/27 01:43:54;;;;;;;26.98;10.95;;;;;;;7.64;100.00;101251.63;5022339;28;20083;-74
2022/11/27 01:46:38;;;;;;;28.33;11.50;;;;;;;7.67;100.00;101256.06;5030768;28;20384;-74
2022/11/27 01:49:09;;;;;;;24.27;10.23;;;;;;;7.70;100.00;101253.41;5029163;28;20112;-74
2022/11/27 01:52:05;;;;;;;26.42;10.00;;;;;;;7.68;100.00;101258.69;5034540;28;20091;-74
2022/11/27 01:54:37;;;;;;;20.75;9.88;;;;;;;7.66;100.00;101252.50;5032524;28;20017;-74
2022/11/27 01:57:16;;;;;;;26.73;10.15;;;;;;;7.55;100.00;101235.75;5033655;28;20021;-73
2022/11/27 01:59:42;;;;;;;18.05;8.70;;;;;;;7.64;100.00;101261.34;5033513;28;20025;-73
2022/11/27 02:02:08;;;;;;;24.20;9.75;;;;;;;7.66;100.00;101257.81;5023345;28;20512;-73
2022/11/27 02:04:33;;;;;;;22.00;10.98;;;;;;;7.69;100.00;101260.44;5029441;28;20053;-75
2022/11/27 02:06:59;;;;;;;20.27;10.38;;;;;;;7.64;100.00;101248.13;5033104;28;20028;-75
2022/11/27 02:09:26;;;;;;;20.02;8.13;;;;;;;7.64;100.00;101256.91;5032874;28;20091;-74
2022/11/27 02:12:09;;;;;;;21.25;9.30;;;;;;;7.67;100.00;101264.88;5034225;28;20100;-75
2022/11/27 02:14:53;;;;;;;17.73;8.90;;;;;;;7.70;100.00;101264.88;5016662;28;20037;-75
2022/11/27 02:17:36;;;;;;;23.77;10.40;;;;;;;7.70;100.00;101267.53;5019644;28;20079;-75
2022/11/27 02:20:31;;;;;;;17.92;8.13;;;;;;;7.75;100.00;101263.09;5034028;28;20057;-74
2022/11/27 02:23:08;;;;;;;22.33;9.48;;;;;;;7.76;100.00;101262.22;5032554;28;20667;-73
2022/11/27 02:25:49;;;;;;;23.95;8.52;;;;;;;7.79;100.00;101261.34;5033977;28;20497;-73
2022/11/27 02:28:23;;;;;;;22.48;8.38;;;;;;;7.80;100.00;101266.63;5033911;28;20449;-74
2022/11/27 02:30:56;;;;;;;20.20;8.73;;;;;;;7.81;100.00;101257.78;5033902;28;20037;-74
2022/11/27 02:33:22;;;;;;;16.27;6.95;;;;;;;7.73;100.00;101234.84;5033963;28;20108;-73
2022/11/27 02:36:10;;;;;;;16.38;8.40;;;;;;;7.75;100.00;101241.91;5033741;28;20390;-74
2022/11/27 02:38:52;;;;;;;13.13;6.70;;;;;;;7.68;100.00;101232.22;5033481;28;20045;-73
2022/11/27 02:41:27;;;;;;;16.27;7.53;;;;;;;7.69;100.00;101241.91;5033754;28;20027;-74
2022/11/27 02:43:54;;;;;;;19.33;7.90;;;;;;;7.68;100.00;101234.88;5025538;28;20029;-74
2022/11/27 02:46:21;;;;;;;15.60;7.75;;;;;;;7.70;100.00;101243.69;5033325;28;20366;-73
2022/11/27 02:48:49;;;;;;;14.13;7.60;;;;;;;7.72;100.00;101239.28;5033103;28;20142;-73
2022/11/27 02:51:19;;;;;;;15.27;7.50;;;;;;;7.71;100.00;101232.22;5033441;28;20025;-73
2022/11/27 02:53:50;;;;;;;13.52;7.13;;;;;;;7.53;100.00;101219.00;5033380;28;20404;-73
2022/11/27 02:56:19;;;;;;;11.68;7.20;;;;;;;7.54;100.00;101220.78;5018059;28;20022;-73
2022/11/27 02:58:46;;;;;;;16.00;8.13;;;;;;;7.56;100.00;101218.97;5015899;28;20053;-73
2022/11/27 03:01:14;;;;;;;13.38;6.07;;;;;;;7.59;100.00;101224.31;5012405;28;20535;-73
2022/11/27 03:03:44;;;;;;;14.45;7.22;;;;;;;7.56;100.00;101213.69;5028048;28;20026;-73
2022/11/27 03:06:16;;;;;;;14.85;6.03;;;;;;;7.60;100.00;101220.75;5033027;28;20057;-73
2022/11/27 03:08:53;;;;;;;16.38;7.68;;;;;;;7.59;100.00;101211.06;5033186;28;20469;-73
2022/11/27 03:11:20;;;;;;;13.57;7.15;;;;;;;7.59;100.00;101203.13;5032817;28;20180;-73
2022/11/27 03:13:49;;;;;;;18.92;7.07;;;;;;;7.57;100.00;101194.28;5016255;28;20080;-73
2022/11/27 03:16:52;;;;;;;13.77;6.50;;;;;;;7.53;100.00;101200.47;5013165;28;20010;-73
2022/11/27 03:19:26;;;;;;;13.63;6.40;;;;;;;7.56;100.00;101192.50;5011749;28;20814;-73
2022/11/27 03:22:01;;;;;;;14.85;6.43;;;;;;;7.48;100.00;101181.06;5013024;28;20029;-74
2022/11/27 03:24:29;;;;;;;12.90;5.95;;;;;;;7.51;100.00;101183.69;5027843;28;20025;-73
2022/11/27 03:26:57;;;;;;;13.85;6.25;;;;;;;7.50;100.00;101176.66;5032683;28;20578;-74
2022/11/27 03:29:28;;;;;;;12.38;6.47;;;;;;;7.49;100.00;101177.53;5032734;28;20029;-74
2022/11/27 03:31:55;;;;;;;14.65;6.70;;;;;;;7.37;100.00;101164.31;5032728;28;20041;-73
2022/11/27 03:34:21;;;;;;;16.45;6.57;;;;;;;7.40;100.00;101179.28;5032472;28;20040;-73
2022/11/27 03:36:46;;;;;;;11.95;6.47;;;;;;;7.35;100.00;101181.97;5031035;28;20029;-73
2022/11/27 03:39:12;;;;;;;13.60;7.32;;;;;;;7.39;100.00;101191.66;5032536;28;20067;-72
2022/11/27 03:41:58;;;;;;;15.90;6.43;;;;;;;7.40;100.00;101185.47;5032318;28;20036;-73
2022/11/27 03:44:32;;;;;;;16.42;7.82;;;;;;;7.51;100.00;101183.69;5031006;28;20545;-73
2022/11/27 03:47:09;;;;;;;14.63;7.50;;;;;;;7.48;100.00;101180.19;5032286;28;20029;-73
2022/11/27 03:49:52;;;;;;;14.18;6.43;;;;;;;7.48;100.00;101181.06;5030989;28;20083;-74
2022/11/27 03:52:44;;;;;;;14.07;7.43;;;;;;;7.44;100.00;101170.47;5031590;28;20481;-74
2022/11/27 03:55:48;;;;;;;15.13;7.72;;;;;;;7.49;100.00;101180.19;5031227;28;20049;-73
2022/11/27 03:58:35;;;;;;;13.18;6.15;;;;;;;7.48;100.00;101181.06;5008311;28;20064;-73
2022/11/27 04:01:03;;;;;;;14.43;6.85;;;;;;;7.39;100.00;101174.91;5031147;28;20045;-73
2022/11/27 04:03:30;;;;;;;16.92;7.75;;;;;;;7.35;100.00;101176.66;5031065;28;20037;-73
2022/11/27 04:05:56;;;;;;;13.27;5.38;;;;;;;7.30;100.00;101175.78;5031310;28;20128;-74
2022/11/27 04:08:23;;;;;;;15.60;6.50;;;;;;;7.22;100.00;101176.66;5032031;28;20025;-74
2022/11/27 04:10:49;;;;;;;15.63;6.93;;;;;;;7.23;100.00;101166.09;5030578;28;20057;-73
2022/11/27 04:13:15;;;;;;;12.57;5.97;;;;;;;7.29;100.00;101176.69;5019814;28;20495;-74
2022/11/27 04:15:40;;;;;;;10.77;5.72;;;;;;;7.21;100.00;101162.59;5031771;28;20091;-73
2022/11/27 04:18:06;;;;;;;16.80;6.22;;;;;;;7.35;100.00;101181.06;5031636;28;20037;-74
2022/11/27 04:20:32;;;;;;;14.95;6.47;;;;;;;7.31;100.00;101168.75;5031886;28;20025;-73
2022/11/27 04:22:57;;;;;;;12.00;6.05;;;;;;;7.40;100.00;101184.59;5031754;28;20060;-72
2022/11/27 04:25:23;;;;;;;10.77;6.10;;;;;;;7.31;100.00;101172.28;5031556;28;20408;-73
2022/11/27 04:27:48;;;;;;;13.75;6.40;;;;;;;7.28;100.00;101174.91;5031636;28;20034;-73
2022/11/27 04:30:14;;;;;;;12.48;6.43;;;;;;;7.30;100.00;101178.44;5031397;28;20037;-73
2022/11/27 04:32:40;;;;;;;11.63;5.70;;;;;;;7.33;100.00;101178.44;5031365;28;20037;-73
2022/11/27 04:35:06;;;;;;;14.02;6.40;;;;;;;7.32;100.00;101171.38;5031609;28;20102;-73
2022/11/27 04:37:31;;;;;;;14.20;7.15;;;;;;;7.21;100.00;101166.97;5031470;28;20057;-74
2022/11/27 04:39:57;;;;;;;15.02;7.05;;;;;;;7.00;100.00;101130.81;5031157;28;20034;-74
2022/11/27 04:42:22;;;;;;;13.23;6.28;;;;;;;7.12;100.00;101146.69;5030029;28;20032;-73
2022/11/27 04:44:48;;;;;;;17.90;7.57;;;;;;;7.23;100.00;101166.09;5010808;28;20053;-74
2022/11/27 04:47:14;;;;;;;12.25;6.35;;;;;;;7.20;100.00;101150.22;5011257;28;20109;-73
2022/11/27 04:49:39;;;;;;;16.23;7.32;;;;;;;7.11;100.00;101139.66;5010288;28;20044;-74
2022/11/27 04:52:05;;;;;;;13.40;6.68;;;;;;;7.16;100.00;101151.13;5026425;28;20030;-73
2022/11/27 04:54:30;;;;;;;11.25;5.55;;;;;;;7.13;100.00;101147.59;5031246;28;20028;-74
2022/11/27 04:56:56;;;;;;;12.32;6.97;;;;;;;7.15;100.00;101141.41;5027959;28;20101;-74
2022/11/27 04:59:22;;;;;;;15.68;6.72;;;;;;;7.04;100.00;101129.94;5031157;28;20083;-74
2022/11/27 05:01:47;;;;;;;18.80;6.80;;;;;;;7.16;100.00;101152.88;5030704;28;20053;-74
2022/11/27 05:04:13;;;;;;;13.27;6.20;;;;;;;7.12;100.00;101138.75;5029720;28;20046;-74
2022/11/27 05:06:38;;;;;;;13.50;6.60;;;;;;;7.18;100.00;101154.63;5030575;28;20026;-73
2022/11/27 05:09:04;;;;;;;12.40;6.00;;;;;;;7.11;100.00;101150.25;5029787;28;20029;-73
2022/11/27 05:11:30;;;;;;;11.05;6.03;;;;;;;7.09;100.00;101140.53;5030976;28;20041;-73
2022/11/27 05:14:15;;;;;;;16.38;7.03;;;;;;;7.04;100.00;101127.31;5018952;28;20068;-74
2022/11/27 05:16:47;;;;;;;16.15;6.25;;;;;;;6.99;100.00;101129.06;5011297;28;20022;-73
2022/11/27 05:19:13;;;;;;;11.55;6.93;;;;;;;7.01;100.00;101122.03;5011304;28;20563;-74
2022/11/27 05:21:39;;;;;;;11.57;6.80;;;;;;;7.04;100.00;101115.84;5011094;28;20030;-74
2022/11/27 05:24:05;;;;;;;13.18;6.28;;;;;;;6.97;100.00;101109.66;5026978;28;20056;-74
2022/11/27 05:26:31;;;;;;;34.08;8.10;;;;;;;7.05;100.00;101133.50;5034875;28;20083;-73
2022/11/27 05:28:57;;;;;;;23.10;7.57;;;;;;;7.00;100.00;101122.03;5033574;28;20480;-73
2022/11/27 05:31:22;;;;;;;13.40;6.85;;;;;;;6.98;100.00;101129.97;5034868;28;20112;-73
2022/11/27 05:33:48;;;;;;;22.35;7.22;;;;;;;7.04;100.00;101152.88;5033621;28;20021;-74
2022/11/27 05:36:13;;;;;;;17.98;7.38;;;;;;;7.01;100.00;101142.28;5034863;28;20029;-75
2022/11/27 05:38:39;;;;;;;14.77;6.53;;;;;;;7.11;100.00;101159.94;5034865;28;20033;-75
2022/11/27 05:41:05;;;;;;;14.25;6.15;;;;;;;7.06;100.00;101157.28;5034618;28;20484;-75
2022/11/27 05:43:30;;;;;;;17.00;6.90;;;;;;;7.07;100.00;101159.03;5025881;28;20156;-73
2022/11/27 05:45:56;;;;;;;13.98;6.55;;;;;;;6.99;100.00;101136.13;5023465;28;20032;-73
2022/11/27 05:48:21;;;;;;;13.57;6.30;;;;;;;7.13;100.00;101147.59;5034625;28;20104;-73
2022/11/27 05:50:46;;;;;;;17.25;7.25;;;;;;;7.09;100.00;101143.16;5034573;28;20033;-74
2022/11/27 05:53:12;;;;;;;13.07;6.80;;;;;;;7.10;100.00;101135.22;5034446;28;20029;-73
2022/11/27 05:55:37;;;;;;;15.57;6.47;;;;;;;7.02;100.00;101130.84;5034557;28;20456;-73
2022/11/27 05:58:03;;;;;;;16.73;6.65;;;;;;;6.94;100.00;101119.38;5034269;28;20021;-73
2022/11/27 06:00:28;;;;;;;13.95;7.10;;;;;;;6.99;100.00;101121.13;5034216;28;20501;-73
2022/11/27 06:02:54;;;;;;;15.38;6.78;;;;;;;7.00;100.00;101108.81;5034154;28;20041;-73
2022/11/27 06:05:20;;;;;;;13.40;6.75;;;;;;;7.02;100.00;101105.25;5034156;28;20029;-73
2022/11/27 06:07:45;;;;;;;13.73;7.20;;;;;;;6.91;100.00;101099.09;5033183;28;20027;-73
2022/11/27 06:10:12;;;;;;;14.85;6.38;;;;;;;6.93;100.00;101086.78;5033317;28;20022;-73
2022/11/27 06:12:37;;;;;;;18.55;6.90;;;;;;;6.93;100.00;101083.25;5031478;28;20473;-74
2022/11/27 06:15:03;;;;;;;15.45;6.55;;;;;;;6.90;100.00;101084.13;5013776;28;20032;-74
2022/11/27 06:17:29;;;;;;;23.45;7.55;;;;;;;6.87;100.00;101078.81;5015307;28;20022;-73
2022/11/27 06:19:54;;;;;;;15.20;6.35;;;;;;;6.80;100.00;101066.50;5013335;28;20355;-73
2022/11/27 06:22:20;;;;;;;13.48;6.72;;;;;;;6.81;100.00;101084.13;5013621;28;20029;-73
2022/11/27 06:24:45;;;;;;;16.13;8.20;;;;;;;6.80;100.00;101081.50;5012811;28;20044;-73
2022/11/27 06:27:10;;;;;;;18.92;7.30;;;;;;;6.76;100.00;101062.09;5013852;28;20026;-73
2022/11/27 06:29:36;;;;;;;14.40;6.70;;;;;;;6.86;100.00;101066.50;5012715;28;20037;-73
2022/11/27 06:32:03;;;;;;;15.27;7.68;;;;;;;6.82;100.00;101080.59;5014014;28;20025;-73
2022/11/27 06:34:29;;;;;;;14.65;6.97;;;;;;;6.81;100.00;101093.81;5021031;28;20040;-73
2022/11/27 06:36:54;;;;;;;14.55;7.35;;;;;;;6.75;100.00;101096.47;5032815;28;20029;-73
2022/11/27 06:39:20;;;;;;;13.45;6.82;;;;;;;6.83;100.00;101100.88;5048861;28;20437;-73
2022/11/27 06:41:45;;;;;;;14.68;6.07;;;;;;;6.88;100.00;101088.53;5033707;28;20022;-73
2022/11/27 06:44:10;;;;;;;17.48;6.68;;;;;;;6.91;100.00;101098.22;5042189;28;20105;-73
2022/11/27 06:46:36;;;;;;;16.35;7.78;;;;;;;6.95;100.00;101100.00;5033827;28;20428;-73
2022/11/27 06:49:02;;;;;;;16.77;7.35;;;;;;;6.86;100.00;101079.72;5033389;28;20026;-73
2022/11/27 06:51:30;;;;;;;15.13;7.43;;;;;;;6.92;100.00;101082.34;5033532;28;20457;-72
2022/11/27 06:53:57;;;;;;;16.15;7.47;;;;;;;7.01;100.00;101082.34;5025985;28;20033;-72
2022/11/27 06:56:26;;;;;;;15.68;6.80;;;;;;;7.01;100.00;101069.13;5030388;28;20083;-72
2022/11/27 06:58:53;;;;;;;14.65;6.88;;;;;;;7.04;100.00;101065.56;5033018;28;20029;-73
2022/11/27 07:01:20;;;;;;;16.15;7.13;;;;;;;7.07;100.00;101077.03;5033296;28;20120;-73
2022/11/27 07:03:45;;;;;;;16.88;7.38;;;;;;;7.06;100.00;101067.34;5032968;28;20033;-73
2022/11/27 07:06:14;;;;;;;12.40;6.70;;;;;;;6.99;100.00;101055.00;5033299;28;20048;-73
2022/11/27 07:08:40;;;;;;;12.77;7.00;;;;;;;6.98;100.00;101069.13;5033262;28;20418;-73
2022/11/27 07:11:11;;;;;;;15.38;6.40;;;;;;;6.98;100.00;101061.19;5025648;28;20037;-73
2022/11/27 07:13:37;;;;;;;13.32;6.65;;;;;;;6.84;100.00;101039.16;5022371;28;20025;-73
2022/11/27 07:16:05;;;;;;;15.00;6.57;;;;;;;6.96;100.00;101060.31;5030852;28;20029;-73
2022/11/27 07:18:37;;;;;;;16.70;7.03;;;;;;;6.79;100.00;101062.09;5032481;28;20030;-73
2022/11/27 07:21:03;;;;;;;17.52;7.90;;;;;;;6.82;100.00;101051.50;5032630;28;20029;-73
2022/11/27 07:23:29;;;;;;;14.13;6.55;;;;;;;6.87;100.00;101048.88;5032653;28;20029;-73
2022/11/27 07:25:54;;;;;;;14.82;6.88;;;;;;;6.85;100.00;101043.59;5012912;28;20489;-73
2022/11/27 07:28:20;;;;;;;16.17;6.90;;;;;;;6.96;100.00;101056.78;5013029;28;20101;-73
2022/11/27 07:30:53;;;;;;;14.38;7.72;;;;;;;6.80;100.00;101048.00;5019703;28;20029;-72
2022/11/27 07:33:19;;;;;;;15.68;6.43;;;;;;;6.88;100.00;101059.44;5024756;28;20033;-72
2022/11/27 07:35:44;;;;;;;13.65;5.40;;;;;;;6.87;100.00;101078.81;5032867;28;20361;-72
2022/11/27 07:38:09;;;;;;;13.68;6.80;;;;;;;6.94;100.00;101083.22;5032503;28;20120;-73
2022/11/27 07:40:37;;;;;;;16.33;6.75;;;;;;;6.97;100.00;101083.22;5032478;28;20029;-73
2022/11/27 07:43:02;;;;;;;14.18;6.22;;;;;;;7.04;100.00;101090.28;5027622;28;20591;-72
2022/11/27 07:45:28;;;;;;;14.40;6.38;;;;;;;6.97;100.00;101056.78;5017471;28;20048;-73
2022/11/27 07:47:53;;;;;;;14.77;6.20;;;;;;;7.08;100.00;101056.78;5032325;28;20022;-72
2022/11/27 07:50:18;;;;;;;20.83;6.88;;;;;;;7.08;100.00;101055.00;5044136;28;20448;-73
2022/11/27 07:52:44;;;;;;;18.13;8.05;;;;;;;7.08;100.00;101052.38;5013409;28;20021;-73
2022/11/27 07:55:09;;;;;;;16.65;6.10;;;;;;;7.06;100.00;101035.63;5046606;28;20540;-73
2022/11/27 07:57:35;;;;;;;11.63;5.85;;;;;;;7.14;100.00;101041.75;5022572;28;20050;-73
2022/11/27 08:00:00;;;;;;;13.38;6.75;;;;;;;7.07;100.00;101037.38;5018209;28;20071;-73
2022/11/27 08:02:26;;;;;;;15.27;7.20;;;;;;;7.08;100.00;101039.16;5015029;28;20445;-73
2022/11/27 08:04:51;;;;;;;13.93;6.47;;;;;;;7.05;100.00;101049.69;5009960;28;20054;-73
2022/11/27 08:07:17;;;;;;;15.15;7.57;;;;;;;6.96;100.00;101038.25;5000841;28;20018;-73
2022/11/27 08:09:42;;;;;;;19.15;8.38;;;;;;;7.16;100.00;101052.34;5005779;28;20026;-73
2022/11/27 08:12:07;;;;;;;16.92;7.57;;;;;;;7.18;100.00;101042.63;5010206;28;20350;-73
2022/11/27 08:14:33;;;;;;;19.45;7.82;;;;;;;7.17;100.00;101027.63;5003985;28;20022;-73
2022/11/27 08:16:58;;;;;;;17.92;7.03;;;;;;;7.17;100.00;101023.22;5009174;28;20072;-73
2022/11/27 08:19:24;;;;;;;16.65;8.23;;;;;;;7.19;100.00;101032.06;5007584;28;20537;-73
2022/11/27 08:21:49;;;;;;;16.10;6.47;;;;;;;7.09;100.00;101009.16;4999249;28;20030;-73
2022/11/27 08:24:15;;;;;;;15.30;6.75;;;;;;;7.09;100.00;100992.38;5006618;28;20034;-73
2022/11/27 08:26:40;;;;;;;15.45;6.50;;;;;;;7.11;100.00;101003.84;5001538;28;20033;-73
2022/11/27 08:29:06;;;;;;;15.50;7.20;;;;;;;7.23;100.00;101017.91;4995873;28;20023;-73
2022/11/27 08:31:32;;;;;;;15.90;6.88;;;;;;;7.32;100.00;101011.72;5017853;28;20037;-73
2022/11/27 08:33:58;;;;;;;18.25;7.82;;;;;;;7.35;100.00;101022.28;4999313;28;20026;-72
2022/11/27 08:36:25;;;;;;;17.63;7.03;;;;;;;7.34;100.00;101024.06;4996437;28;20033;-73
2022/11/27 08:38:51;;;;;;;15.15;6.97;;;;;;;7.31;100.00;101008.22;5005823;28;20042;-73
2022/11/27 08:41:16;;;;;;;17.73;7.10;;;;;;;7.47;100.00;101027.53;5001783;28;20044;-73
2022/11/27 08:43:41;;;;;;;14.32;7.60;;;;;;;7.51;100.00;101032.81;5010400;28;20121;-73
2022/11/27 08:46:07;;;;;;;14.35;7.60;;;;;;;7.54;100.00;101032.81;5009927;28;20049;-73
2022/11/27 08:48:33;;;;;;;13.63;6.40;;;;;;;7.63;100.00;101031.88;4998011;28;20058;-73
2022/11/27 08:50:58;;;;;;;16.23;8.00;;;;;;;7.69;100.00;101014.19;5005269;28;20030;-73
2022/11/27 08:53:24;;;;;;;13.48;6.22;;;;;;;7.78;100.00;101000.91;4994854;28;20041;-73
2022/11/27 08:55:49;;;;;;;16.33;6.93;;;;;;;7.75;100.00;100993.00;5000141;28;20034;-73
2022/11/27 08:58:15;;;;;;;16.15;7.50;;;;;;;7.90;100.00;101000.84;5003670;28;20395;-72
2022/11/27 09:00:41;;;;;;;16.20;7.20;;;;;;;7.88;100.00;100999.09;5005139;28;20056;-72
2022/11/27 09:03:06;;;;;;;13.75;6.55;;;;;;;7.80;100.00;100995.59;5025188;28;20013;-73
2022/11/27 09:05:32;;;;;;;14.98;7.03;;;;;;;7.91;100.00;100994.66;5020701;28;20021;-72
2022/11/27 09:08:00;;;;;;;17.90;7.72;;;;;;;8.16;100.00;101005.06;5025482;28;20030;-72
2022/11/27 09:10:25;;;;;;;14.07;7.15;;;;;;;8.10;100.00;100991.88;5019233;28;20025;-67
2022/11/27 09:12:51;;;;;;;14.45;7.20;;;;;;;8.28;100.00;101007.69;5020389;28;20493;-68
2022/11/27 09:15:17;;;;;;;13.18;6.63;;;;;;;8.36;100.00;101009.38;5025251;28;20037;-65
2022/11/27 09:17:42;;;;;;;16.55;7.60;;;;;;;8.48;100.00;101003.09;5023421;28;20025;-70
2022/11/27 09:20:09;;;;;;;10.95;5.47;;;;;;;8.45;100.00;101001.34;5022603;28;20049;-69
2022/11/27 09:22:35;;;;;;;12.98;5.80;;;;;;;8.38;100.00;100988.16;5020086;28;20382;-70
2022/11/27 09:25:01;;;;;;;13.98;6.20;;;;;;;8.35;100.00;100996.16;5016245;28;20032;-69
2022/11/27 09:27:26;;;;;;;17.38;8.35;;;;;;;8.31;99.09;100987.34;5040217;28;20117;-71
2022/11/27 09:29:52;;;;;;;15.10;8.23;;;;;;;8.37;98.30;100978.47;5021180;28;20048;-71
2022/11/27 09:32:17;;;;;;;12.65;6.50;;;;;;;8.18;97.13;100976.78;5023019;28;20541;-71
2022/11/27 09:34:43;;;;;;;12.27;6.45;;;;;;;7.93;97.85;100974.34;5013654;28;20037;-71
2022/11/27 09:37:08;;;;;;;13.15;6.57;;;;;;;7.92;99.42;100975.19;5026156;28;20392;-70
2022/11/27 09:39:34;;;;;;;17.50;7.13;;;;;;;7.93;99.69;100984.94;5017521;28;20040;-70
2022/11/27 09:42:05;;;;;;;15.00;7.82;;;;;;;7.97;99.77;100965.47;5015234;28;20029;-70
2022/11/27 09:44:45;;;;;;;15.13;7.43;;;;;;;8.13;99.96;100989.19;5016848;28;20033;-70
2022/11/27 09:47:20;;;;;;;21.92;11.02;;;;;;;8.04;99.65;100974.25;5016153;28;20084;-70
2022/11/27 09:49:59;;;;;;;14.52;7.72;;;;;;;8.08;100.00;100991.88;5032565;28;20029;-70
2022/11/27 09:52:36;;;;;;;14.25;7.03;;;;;;;8.11;99.99;100985.69;5018764;28;20030;-70
2022/11/27 09:55:20;;;;;;;11.02;5.90;;;;;;;8.12;100.00;100976.84;5018247;28;20481;-70
2022/11/27 09:58:04;;;;;;;11.73;5.85;;;;;;;8.20;100.00;100969.72;5021848;28;20076;-70
2022/11/27 10:00:29;;;;;;;16.13;6.30;;;;;;;8.37;100.00;100978.47;5015896;28;20120;-70
2022/11/27 10:02:54;;;;;;;14.05;5.97;;;;;;;8.48;99.40;100982.78;5017668;28;20033;-71
2022/11/27 10:05:32;;;;;;;11.52;5.85;;;;;;;8.62;99.49;100978.22;5016076;28;20033;-70
2022/11/27 10:08:19;;;;;;;12.32;5.93;;;;;;;8.75;99.12;100973.66;5016660;28;20025;-71
2022/11/27 10:10:48;;;;;;;15.15;7.95;;;;;;;8.74;97.21;100961.31;5011853;28;20029;-71
2022/11/27 10:13:19;;;;;;;15.30;6.75;;;;;;;8.71;96.80;100950.72;5016291;28;20037;-70
2022/11/27 10:15:50;;;;;;;17.63;7.97;;;;;;;8.73;96.59;100959.56;5019631;28;20473;-70
2022/11/27 10:18:40;;;;;;;14.38;6.07;;;;;;;8.68;96.34;100943.66;5022662;28;20136;-71
2022/11/27 10:21:22;;;;;;;14.68;6.43;;;;;;;8.66;95.88;100931.34;5017241;28;20032;-71
2022/11/27 10:24:03;;;;;;;14.05;6.88;;;;;;;8.64;96.15;100930.47;5021259;28;20076;-71
2022/11/27 10:26:32;;;;;;;14.52;6.88;;;;;;;8.54;96.52;100918.19;5021510;28;20029;-70
2022/11/27 10:29:21;;;;;;;14.77;7.40;;;;;;;8.51;96.81;100910.28;5024232;28;20034;-71
2022/11/27 10:31:58;;;;;;;15.57;7.38;;;;;;;8.53;97.14;100917.34;5017217;28;20026;-70
2022/11/27 10:34:33;;;;;;;20.95;8.50;;;;;;;8.50;97.17;100917.34;5028188;28;20036;-71
2022/11/27 10:37:01;;;;;;;17.83;8.43;;;;;;;8.43;96.90;100902.41;5033771;28;20124;-71
2022/11/27 10:39:40;;;;;;;13.18;6.55;;;;;;;8.55;96.87;100920.81;5030086;28;20053;-72
2022/11/27 10:42:26;;;;;;;14.85;6.43;;;;;;;8.61;97.06;100904.88;5019934;28;20029;-71
2022/11/27 10:45:15;;;;;;;15.98;7.30;;;;;;;8.54;95.46;100886.38;5018635;28;20038;-70
2022/11/27 10:47:42;;;;;;;18.55;7.35;;;;;;;8.54;95.74;100876.66;5015640;28;20482;-71
2022/11/27 10:50:14;;;;;;;21.40;12.88;;;;;;;8.49;95.68;100861.69;5034674;28;20037;-71
2022/11/27 10:52:52;;;;;;;17.73;9.80;;;;;;;8.64;96.75;100864.16;5029187;28;20022;-70
2022/11/27 10:55:27;;;;;;;16.60;10.07;;;;;;;8.68;96.40;100865.91;5026225;28;20104;-71
2022/11/27 10:58:26;;;;;;;15.48;7.38;;;;;;;8.76;96.81;100866.69;5037727;28;20412;-71
2022/11/27 11:01:06;;;;;;;14.75;6.10;;;;;;;8.73;96.42;100834.91;5016453;28;20164;-71
2022/11/27 11:03:32;;;;;;;13.90;6.47;;;;;;;8.98;96.55;100842.53;5022840;28;20044;-71
2022/11/27 11:06:02;;;;;;;13.35;6.10;;;;;;;9.13;96.44;100846.75;5021690;28;20044;-71
2022/11/27 11:08:28;;;;;;;15.35;6.78;;;;;;;9.14;96.08;100837.91;5015399;28;20021;-71
2022/11/27 11:11:01;;;;;;;16.60;7.03;;;;;;;9.15;95.67;100834.34;5019431;28;20516;-71
2022/11/27 11:13:44;;;;;;;13.13;6.65;;;;;;;9.14;95.77;100829.94;5021628;28;20457;-71
2022/11/27 11:16:10;;;;;;;13.73;6.63;;;;;;;9.38;94.89;100836.66;5027018;28;20029;-70
2022/11/27 11:18:45;;;;;;;13.32;6.22;;;;;;;9.40;94.09;100829.56;5022420;28;20139;-71
2022/11/27 11:21:18;;;;;;;13.60;6.53;;;;;;;9.59;94.54;100847.84;5018422;28;20032;-71
2022/11/27 11:24:02;;;;;;;13.18;5.93;;;;;;;9.63;93.10;100833.63;5020664;28;20033;-71
2022/11/27 11:26:32;;;;;;;13.43;5.35;;;;;;;9.59;91.68;100826.59;5030766;28;20689;-71